Time;durP1;ratioP1;P1;durP2;ratioP2;P2;SDS_P1;SDS_P2;PMS_P1;PMS_P2;Temp;Humidity;BMP_temperature;BMP_pressure;BME280_temperature;BME280_humidity;BME280_pressure;Samples;Min_cycle;Max_cycle;Signal;HPM_P1;HPM_P2
2020/12/03 05:47:33;;;;;;;17.77;10.45;;;;;;;;;;6231680;22;925842;-80
2020/12/03 05:50:03;;;;;;;18.85;9.50;;;;;;;;;;6310937;22;20090;-80
2020/12/03 05:52:30;;;;;;;21.27;11.70;;;;;;;;;;6311421;22;20037;-80
2020/12/03 05:55:04;;;;;;;17.70;10.93;;;;;;;;;;6310662;22;20085;-80
2020/12/03 05:57:37;;;;;;;17.17;9.52;;;;;;;;;;6282408;22;20026;-80
2020/12/03 06:00:12;;;;;;;18.02;9.68;;;;;;;;;;6282349;22;19999;-80
2020/12/03 06:02:57;;;;;;;17.52;10.32;;;;;;;;;;6255662;22;19996;-80
2020/12/03 06:05:29;;;;;;;18.85;9.27;;;;;;;;;;6254471;22;20059;-79
2020/12/03 06:08:07;;;;;;;16.83;9.98;;;;;;;;;;6283177;22;20426;-79
2020/12/03 06:10:51;;;;;;;17.30;9.77;;;;;;;;;;6283098;22;20438;-80
2020/12/03 06:13:34;;;;;;;16.20;9.80;;;;;;;;;;6256854;22;20113;-80
2020/12/03 06:16:05;;;;;;;17.42;9.32;;;;;;;;;;6284570;22;20311;-81
2020/12/03 06:18:46;;;;;;;18.75;9.07;;;;;;;;;;6284347;22;20015;-81
2020/12/03 06:21:30;;;;;;;16.38;9.27;;;;;;;;;;6284271;22;20333;-80
2020/12/03 06:24:17;;;;;;;18.48;10.25;;;;;;;;;;6284880;22;20052;-80
2020/12/03 06:27:04;;;;;;;17.65;9.68;;;;;;;;;;6285026;22;20003;-81
2020/12/03 06:31:54;;;;;;;14.65;8.93;;;;;;;;;;5083886;27;20342;-83
2020/12/03 06:34:24;;;;;;;19.80;10.55;;;;;;;;;;5093174;28;20032;-82
2020/12/03 06:36:55;;;;;;;15.15;8.32;;;;;;;;;;5076740;28;20071;-82
2020/12/03 06:39:25;;;;;;;19.40;10.23;;;;;;;;;;5078458;28;20013;-83
2020/12/03 06:44:19;;;;;;;17.17;10.20;;;;;;;;;;5156061;27;20359;-81
2020/12/03 06:47:03;;;;;;;19.80;11.43;;;;;;;;;;5137945;27;20455;-81
2020/12/03 06:49:48;;;;;;;20.05;9.88;;;;;;;;;;5137809;27;20027;-81
2020/12/03 06:52:33;;;;;;;20.27;11.77;;;;;;;;;;5132464;27;20127;-81
2020/12/03 06:55:19;;;;;;;19.33;9.70;;;;;;;;;;5134302;27;20103;-81
2020/12/03 06:57:53;;;;;;;16.45;9.80;;;;;;;;;;5139176;27;20027;-81
2020/12/03 07:00:23;;;;;;;18.25;9.80;;;;;;;;;;5119351;27;20035;-81
2020/12/03 07:03:12;;;;;;;15.43;9.95;;;;;;;;;;5143187;27;20030;-81
2020/12/03 07:06:06;;;;;;;18.05;10.00;;;;;;;;;;5085118;27;20039;-81
2020/12/03 07:08:40;;;;;;;20.23;10.98;;;;;;;;;;5143752;27;20011;-81
2020/12/03 07:11:25;;;;;;;16.65;9.57;;;;;;;;;;5126054;27;20061;-81
2020/12/03 07:14:09;;;;;;;19.23;10.63;;;;;;;;;;5139743;27;20027;-81
2020/12/03 07:16:52;;;;;;;22.48;13.40;;;;;;;;;;5146475;27;20030;-80
2020/12/03 07:19:18;;;;;;;22.70;11.10;;;;;;;;;;5140509;27;20038;-80
2020/12/03 07:21:53;;;;;;;18.40;10.90;;;;;;;;;;5149355;27;20058;-80
2020/12/03 07:24:27;;;;;;;21.40;12.18;;;;;;;;;;5141497;27;20058;-80
2020/12/03 07:27:24;;;;;;;21.80;12.40;;;;;;;;;;5148577;27;20035;-80
2020/12/03 07:29:51;;;;;;;22.55;11.93;;;;;;;;;;5138356;27;20011;-80
2020/12/03 07:32:24;;;;;;;26.67;12.52;;;;;;;;;;5143918;27;20522;-81
2020/12/03 07:34:55;;;;;;;29.27;18.92;;;;;;;;;;5146700;27;20034;-81
2020/12/03 07:37:37;;;;;;;29.30;16.42;;;;;;;;;;5144972;27;20030;-80
2020/12/03 07:40:02;;;;;;;;;;;;;;;;;;5146506;27;20019;-80
2020/12/03 07:42:28;;;;;;;21.77;12.10;;;;;;;;;;5144836;27;19933;-79
2020/12/03 07:44:54;;;;;;;28.02;15.23;;;;;;;;;;5145507;27;20103;-81
2020/12/03 07:47:30;;;;;;;25.77;14.73;;;;;;;;;;5145051;27;20030;-81
2020/12/03 07:49:57;;;;;;;24.08;13.45;;;;;;;;;;5148084;27;20011;-81
2020/12/03 07:52:25;;;;;;;23.63;12.63;;;;;;;;;;5135923;27;20389;-80
2020/12/03 07:54:51;;;;;;;21.05;12.48;;;;;;;;;;5151846;27;20052;-80
2020/12/03 07:57:24;;;;;;;21.23;12.57;;;;;;;;;;5145997;27;20058;-80
2020/12/03 07:59:50;;;;;;;19.65;11.20;;;;;;;;;;5141725;27;20019;-81
2020/12/03 08:02:39;;;;;;;19.58;11.85;;;;;;;;;;5107567;27;20526;-81
2020/12/03 08:05:44;;;;;;;18.33;11.55;;;;;;;;;;5091910;27;20583;-81
2020/12/03 08:08:22;;;;;;;22.70;12.80;;;;;;;;;;5042090;28;20073;-81
2020/12/03 08:10:49;;;;;;;23.75;13.57;;;;;;;;;;5041534;28;20103;-81
2020/12/03 08:13:17;;;;;;;20.52;11.73;;;;;;;;;;5093295;27;20043;-81
2020/12/03 08:15:43;;;;;;;20.52;11.63;;;;;;;;;;5134724;27;20015;-81
2020/12/03 08:18:29;;;;;;;19.83;12.68;;;;;;;;;;5130713;27;20054;-81
2020/12/03 08:20:56;;;;;;;15.45;10.38;;;;;;;;;;5130976;27;20019;-81
2020/12/03 08:23:22;;;;;;;19.60;11.70;;;;;;;;;;5127075;27;20384;-81
2020/12/03 08:25:48;;;;;;;22.27;12.45;;;;;;;;;;5130443;27;20067;-81
2020/12/03 08:28:20;;;;;;;26.08;13.68;;;;;;;;;;5127955;27;20019;-81
2020/12/03 08:30:52;;;;;;;29.48;15.13;;;;;;;;;;5125013;27;20015;-81
2020/12/03 08:33:24;;;;;;;21.58;12.30;;;;;;;;;;5131098;27;20471;-81
2020/12/03 08:35:53;;;;;;;20.58;11.68;;;;;;;;;;5123717;27;20568;-81
2020/12/03 08:38:20;;;;;;;21.35;11.82;;;;;;;;;;5123542;27;20031;-81
2020/12/03 08:40:47;;;;;;;24.80;13.32;;;;;;;;;;5123458;27;20027;-81
2020/12/03 08:43:16;;;;;;;19.85;11.65;;;;;;;;;;5131457;27;20031;-81
2020/12/03 08:45:46;;;;;;;19.70;11.73;;;;;;;;;;5122581;27;20088;-81
2020/12/03 08:48:16;;;;;;;21.10;12.70;;;;;;;;;;5122897;27;20485;-81
2020/12/03 08:50:42;;;;;;;19.90;12.77;;;;;;;;;;5128182;27;20015;-81
2020/12/03 08:53:09;;;;;;;18.50;12.60;;;;;;;;;;5122460;27;20030;-81
2020/12/03 08:55:39;;;;;;;19.60;11.50;;;;;;;;;;5130094;27;20019;-81
2020/12/03 08:58:06;;;;;;;18.77;10.77;;;;;;;;;;5122653;27;20028;-81
2020/12/03 09:00:33;;;;;;;29.50;19.88;;;;;;;;;;5131113;27;20024;-81
2020/12/03 09:03:00;;;;;;;23.98;16.00;;;;;;;;;;5122205;27;20024;-80
2020/12/03 09:05:26;;;;;;;23.65;13.70;;;;;;;;;;5121967;27;20059;-81
2020/12/03 09:07:55;;;;;;;23.52;12.55;;;;;;;;;;5122631;27;20030;-81
2020/12/03 09:10:22;;;;;;;20.15;11.68;;;;;;;;;;5124073;27;20016;-81
2020/12/03 09:12:48;;;;;;;21.98;14.32;;;;;;;;;;5128090;27;20019;-80
2020/12/03 09:15:16;;;;;;;28.33;18.10;;;;;;;;;;5122751;27;20031;-80
2020/12/03 09:17:44;;;;;;;28.23;17.90;;;;;;;;;;5130749;27;20359;-81
2020/12/03 09:20:11;;;;;;;27.20;16.02;;;;;;;;;;5105251;27;20084;-81
2020/12/03 09:22:38;;;;;;;22.20;13.90;;;;;;;;;;5116688;27;20026;-81
2020/12/03 09:25:12;;;;;;;22.13;13.00;;;;;;;;;;5110396;27;20047;-81
2020/12/03 09:27:42;;;;;;;17.38;11.68;;;;;;;;;;5128808;27;20037;-81
2020/12/03 09:30:10;;;;;;;20.58;11.25;;;;;;;;;;5129202;27;20084;-81
2020/12/03 09:32:39;;;;;;;18.35;10.98;;;;;;;;;;5107891;27;20023;-81
2020/12/03 09:35:05;;;;;;;15.85;10.20;;;;;;;;;;5129091;27;20023;-80
2020/12/03 09:37:31;;;;;;;18.35;10.57;;;;;;;;;;5128073;27;20023;-81
2020/12/03 09:39:57;;;;;;;18.98;11.00;;;;;;;;;;5129080;27;20020;-79
2020/12/03 09:42:24;;;;;;;19.35;10.88;;;;;;;;;;5129756;27;20031;-80
2020/12/03 09:44:57;;;;;;;20.25;11.75;;;;;;;;;;5111400;27;20039;-81
2020/12/03 09:47:28;;;;;;;25.45;13.20;;;;;;;;;;5127612;27;20055;-80
2020/12/03 09:49:54;;;;;;;19.10;11.45;;;;;;;;;;5130227;27;20389;-81
2020/12/03 09:52:22;;;;;;;23.48;14.45;;;;;;;;;;5127995;27;20058;-81
2020/12/03 09:54:48;;;;;;;22.17;12.45;;;;;;;;;;5122972;27;20030;-81
2020/12/03 09:57:14;;;;;;;24.80;14.23;;;;;;;;;;5128553;27;20034;-80
2020/12/03 09:59:40;;;;;;;19.00;11.20;;;;;;;;;;5128756;27;20023;-81
2020/12/03 10:02:24;;;;;;;24.42;14.15;;;;;;;;;;5111059;27;20023;-81
2020/12/03 10:04:57;;;;;;;28.77;14.80;;;;;;;;;;5106841;28;20022;-81
2020/12/03 10:07:23;;;;;;;21.58;14.10;;;;;;;;;;5125779;27;20023;-81
2020/12/03 10:10:07;;;;;;;20.05;11.93;;;;;;;;;;5125401;27;20070;-81
2020/12/03 10:12:33;;;;;;;20.83;11.98;;;;;;;;;;5132993;27;20134;-81
2020/12/03 10:15:02;;;;;;;23.70;11.85;;;;;;;;;;5124518;27;20067;-81
2020/12/03 10:17:31;;;;;;;22.70;12.68;;;;;;;;;;5132861;27;20033;-81
2020/12/03 10:20:01;;;;;;;20.23;12.15;;;;;;;;;;5123387;27;20023;-81
2020/12/03 10:25:04;;;;;;;20.02;11.35;;;;;;;;;;5114147;27;20350;-79
2020/12/03 10:27:33;;;;;;;18.98;11.60;;;;;;;;;;5123990;28;20050;-78
2020/12/03 10:30:00;;;;;;;22.30;12.00;;;;;;;;;;5119217;28;20550;-80
2020/12/03 10:32:27;;;;;;;19.58;10.82;;;;;;;;;;5112915;28;20492;-80
2020/12/03 10:34:53;;;;;;;22.27;12.98;;;;;;;;;;5120297;28;20046;-79
2020/12/03 10:37:22;;;;;;;21.50;11.93;;;;;;;;;;5099763;28;20039;-79
2020/12/03 10:39:52;;;;;;;19.05;10.98;;;;;;;;;;5120555;28;20055;-79
2020/12/03 10:42:20;;;;;;;20.10;11.50;;;;;;;;;;5117049;28;20023;-80
2020/12/03 10:44:47;;;;;;;21.40;12.38;;;;;;;;;;5121829;27;20051;-79
2020/12/03 10:47:14;;;;;;;17.95;10.40;;;;;;;;;;5118874;27;20054;-79
2020/12/03 10:49:42;;;;;;;17.98;11.38;;;;;;;;;;5113704;28;20048;-80
2020/12/03 10:52:10;;;;;;;17.33;9.93;;;;;;;;;;5122398;28;20031;-80
2020/12/03 10:54:36;;;;;;;17.92;10.25;;;;;;;;;;5113291;28;20019;-79
2020/12/03 10:57:12;;;;;;;18.02;10.52;;;;;;;;;;5125219;28;20023;-80
2020/12/03 10:59:41;;;;;;;16.08;9.65;;;;;;;;;;5115740;28;20038;-80
2020/12/03 11:02:31;;;;;;;17.42;10.55;;;;;;;;;;5121545;28;20027;-80
2020/12/03 11:04:57;;;;;;;16.90;9.48;;;;;;;;;;5111514;28;20573;-80
2020/12/03 11:07:24;;;;;;;19.30;11.25;;;;;;;;;;5124617;28;20019;-80
2020/12/03 11:09:51;;;;;;;20.48;11.57;;;;;;;;;;5111539;28;20020;-79
2020/12/03 11:12:17;;;;;;;19.92;11.82;;;;;;;;;;5122254;28;20050;-79
2020/12/03 11:14:43;;;;;;;18.90;10.40;;;;;;;;;;5115088;28;20031;-79
2020/12/03 11:17:36;;;;;;;20.88;12.77;;;;;;;;;;5120703;28;20031;-79
2020/12/03 11:20:03;;;;;;;18.75;10.90;;;;;;;;;;5110298;28;20035;-79
2020/12/03 11:22:32;;;;;;;22.60;12.25;;;;;;;;;;5117849;28;20483;-79
2020/12/03 11:25:00;;;;;;;23.77;12.57;;;;;;;;;;5119847;28;20031;-79
2020/12/03 11:27:28;;;;;;;19.08;12.30;;;;;;;;;;5119434;28;20424;-79
2020/12/03 11:29:54;;;;;;;20.63;11.60;;;;;;;;;;5115095;27;20027;-79
2020/12/03 11:32:21;;;;;;;22.48;13.60;;;;;;;;;;5116034;28;20031;-79
2020/12/03 11:34:47;;;;;;;20.13;12.18;;;;;;;;;;5109366;28;20027;-79
2020/12/03 11:37:13;;;;;;;20.02;10.80;;;;;;;;;;5096925;28;20023;-79
2020/12/03 11:39:39;;;;;;;21.20;11.63;;;;;;;;;;5104625;28;20110;-79
2020/12/03 11:42:34;;;;;;;19.98;11.80;;;;;;;;;;5105528;28;20024;-79
2020/12/03 11:52:51;;;;;;;15.85;10.30;;;;;;;;;;5118462;27;20373;-80
2020/12/03 11:55:21;;;;;;;19.33;11.35;;;;;;;;;;5107930;28;20077;-80
2020/12/03 11:57:47;;;;;;;18.95;11.82;;;;;;;;;;5097897;28;20081;-80
2020/12/03 12:00:17;;;;;;;18.17;11.77;;;;;;;;;;5098678;28;20090;-79
2020/12/03 12:02:43;;;;;;;18.05;10.20;;;;;;;;;;5097164;28;20482;-80
2020/12/03 12:05:19;;;;;;;21.05;11.73;;;;;;;;;;5096793;28;20020;-80
2020/12/03 12:07:56;;;;;;;17.80;11.13;;;;;;;;;;5097609;28;20016;-79
2020/12/03 12:10:34;;;;;;;22.95;12.73;;;;;;;;;;5100356;28;20106;-80
2020/12/03 12:13:00;;;;;;;18.65;10.00;;;;;;;;;;5100116;28;20031;-80
2020/12/03 12:15:26;;;;;;;18.90;11.00;;;;;;;;;;5087413;28;20028;-79
2020/12/03 12:17:52;;;;;;;26.48;15.30;;;;;;;;;;5088730;28;20020;-83
2020/12/03 12:20:18;;;;;;;34.75;18.70;;;;;;;;;;5093017;28;20086;-83
2020/12/03 12:25:03;;;;;;;24.40;12.00;;;;;;;;;;5092054;27;20356;-83
2020/12/03 12:27:29;;;;;;;25.40;14.57;;;;;;;;;;5094290;28;20029;-83
2020/12/03 12:29:55;;;;;;;18.55;11.40;;;;;;;;;;5082513;28;20042;-82
2020/12/03 12:32:21;;;;;;;18.23;11.65;;;;;;;;;;5075975;28;20469;-82
2020/12/03 12:34:47;;;;;;;17.73;10.80;;;;;;;;;;5080494;28;20024;-82
2020/12/03 12:37:13;;;;;;;17.90;10.23;;;;;;;;;;5077927;28;20462;-82
2020/12/03 12:39:39;;;;;;;16.90;10.05;;;;;;;;;;5079265;28;20025;-82
2020/12/03 12:42:06;;;;;;;32.42;17.48;;;;;;;;;;5082183;28;20028;-82
2020/12/03 12:44:33;;;;;;;133.48;54.03;;;;;;;;;;5081459;28;20024;-82
2020/12/03 12:47:00;;;;;;;25.40;15.02;;;;;;;;;;5081692;28;20021;-82
2020/12/03 12:49:26;;;;;;;28.08;14.57;;;;;;;;;;5075788;28;20473;-82
2020/12/03 12:51:52;;;;;;;26.85;15.70;;;;;;;;;;5083221;28;20047;-82
2020/12/03 12:54:18;;;;;;;21.77;12.93;;;;;;;;;;5077288;28;20028;-81
2020/12/03 12:56:47;;;;;;;22.42;13.15;;;;;;;;;;5079708;28;20025;-81
2020/12/03 12:59:13;;;;;;;18.40;11.35;;;;;;;;;;5083790;28;20392;-82
2020/12/03 13:01:42;;;;;;;17.40;11.20;;;;;;;;;;5083793;28;20114;-81
2020/12/03 13:04:08;;;;;;;16.80;10.52;;;;;;;;;;5078852;28;20435;-81
2020/12/03 13:06:34;;;;;;;18.90;11.98;;;;;;;;;;5093992;28;20020;-82
2020/12/03 13:09:00;;;;;;;22.55;12.63;;;;;;;;;;5086365;28;20051;-82
2020/12/03 13:11:26;;;;;;;19.40;12.45;;;;;;;;;;5081786;28;20504;-81
2020/12/03 13:13:52;;;;;;;17.58;11.05;;;;;;;;;;5078878;28;20423;-81
2020/12/03 13:16:18;;;;;;;21.48;11.80;;;;;;;;;;5077862;28;20028;-81
2020/12/03 13:18:44;;;;;;;20.10;10.48;;;;;;;;;;5082942;28;20028;-82
2020/12/03 13:21:10;;;;;;;18.63;11.38;;;;;;;;;;5078619;28;20055;-82
2020/12/03 13:23:36;;;;;;;21.10;13.70;;;;;;;;;;5081289;28;20036;-82
2020/12/03 13:26:02;;;;;;;22.80;13.25;;;;;;;;;;5079557;28;20024;-82
2020/12/03 13:28:28;;;;;;;20.45;12.52;;;;;;;;;;5080823;28;20028;-82
2020/12/03 13:30:54;;;;;;;17.65;11.35;;;;;;;;;;5079218;28;20085;-82
2020/12/03 13:33:20;;;;;;;19.60;11.30;;;;;;;;;;5078193;28;20025;-79
2020/12/03 13:35:46;;;;;;;16.55;10.15;;;;;;;;;;5068733;28;20438;-79
2020/12/03 13:38:12;;;;;;;16.08;10.98;;;;;;;;;;5062570;28;20028;-79
2020/12/03 13:40:42;;;;;;;15.75;10.10;;;;;;;;;;5064633;28;20025;-78
2020/12/03 13:43:08;;;;;;;16.90;11.02;;;;;;;;;;5062269;28;20527;-78
2020/12/03 13:45:34;;;;;;;16.92;9.60;;;;;;;;;;5064368;28;20020;-79
2020/12/03 13:48:00;;;;;;;19.50;10.80;;;;;;;;;;5064599;28;20021;-79
2020/12/03 13:50:26;;;;;;;18.13;10.65;;;;;;;;;;5078763;28;20021;-77
2020/12/03 13:52:52;;;;;;;15.13;10.02;;;;;;;;;;5079995;28;20032;-77
2020/12/03 13:55:18;;;;;;;16.65;10.40;;;;;;;;;;5084920;28;20017;-77
2020/12/03 13:57:44;;;;;;;19.38;10.68;;;;;;;;;;5079225;28;20035;-77
2020/12/03 14:00:10;;;;;;;15.00;9.15;;;;;;;;;;5074875;28;20108;-78
2020/12/03 14:02:36;;;;;;;17.58;9.65;;;;;;;;;;5077569;28;20040;-79
2020/12/03 14:05:03;;;;;;;15.20;9.50;;;;;;;;;;5070815;28;20084;-79
2020/12/03 14:12:06;;;;;;;16.70;10.70;;;;;;;;;;5121375;27;20376;-77
2020/12/03 14:14:33;;;;;;;18.42;10.27;;;;;;;;;;5120940;28;20027;-80
2020/12/03 14:16:58;;;;;;;17.83;10.90;;;;;;;;;;5114131;28;20377;-79
2020/12/03 14:19:24;;;;;;;17.60;10.20;;;;;;;;;;5110650;28;20027;-81
2020/12/03 14:21:50;;;;;;;17.27;10.80;;;;;;;;;;5111960;28;20049;-81
2020/12/03 14:24:16;;;;;;;15.80;9.95;;;;;;;;;;5115287;28;20024;-81
2020/12/03 14:26:42;;;;;;;16.73;9.75;;;;;;;;;;5101804;28;20048;-81
2020/12/03 14:29:08;;;;;;;18.50;10.65;;;;;;;;;;5106277;28;20043;-81
2020/12/03 14:31:34;;;;;;;18.33;10.45;;;;;;;;;;5109286;28;20445;-80
2020/12/03 14:34:00;;;;;;;17.20;9.93;;;;;;;;;;5108582;28;20029;-80
2020/12/03 14:36:26;;;;;;;15.88;10.07;;;;;;;;;;5103573;28;20103;-80
2020/12/03 14:38:52;;;;;;;17.35;10.73;;;;;;;;;;5105532;28;20031;-80
2020/12/03 14:41:18;;;;;;;19.42;11.02;;;;;;;;;;5100643;28;20021;-80
2020/12/03 14:43:44;;;;;;;20.83;11.43;;;;;;;;;;5104316;28;20116;-80
2020/12/03 14:46:10;;;;;;;16.15;10.18;;;;;;;;;;5102743;28;20563;-80
2020/12/03 14:48:36;;;;;;;22.30;11.45;;;;;;;;;;5104507;28;20032;-80
2020/12/03 14:51:04;;;;;;;20.80;12.90;;;;;;;;;;5110937;28;20031;-80
2020/12/03 14:53:30;;;;;;;18.80;12.55;;;;;;;;;;5100369;28;20059;-80
2020/12/03 14:56:00;;;;;;;27.48;14.73;;;;;;;;;;5107633;28;20020;-80
2020/12/03 14:58:27;;;;;;;29.05;16.77;;;;;;;;;;5103500;28;20040;-81
2020/12/03 15:03:11;;;;;;;18.85;11.38;;;;;;;;;;5120952;27;20347;-80
2020/12/03 15:05:37;;;;;;;20.40;12.30;;;;;;;;;;5105420;28;20081;-80
2020/12/03 15:08:04;;;;;;;34.63;18.42;;;;;;;;;;5107608;28;20491;-81
2020/12/03 15:10:38;;;;;;;26.33;15.27;;;;;;;;;;5100297;28;20028;-81
2020/12/03 15:13:04;;;;;;;19.30;11.32;;;;;;;;;;5098488;28;20055;-80
2020/12/03 15:15:30;;;;;;;19.17;10.07;;;;;;;;;;5107319;28;20415;-81
2020/12/03 15:17:56;;;;;;;18.00;10.02;;;;;;;;;;5099595;28;20041;-81
2020/12/03 15:20:22;;;;;;;18.55;10.05;;;;;;;;;;5098098;28;20020;-80
2020/12/03 15:22:48;;;;;;;16.85;10.32;;;;;;;;;;5109817;28;20050;-80
2020/12/03 15:25:14;;;;;;;18.08;10.73;;;;;;;;;;5106775;28;20024;-80
2020/12/03 15:27:40;;;;;;;15.48;9.50;;;;;;;;;;5109692;28;20020;-81
2020/12/03 15:30:06;;;;;;;18.17;10.63;;;;;;;;;;5103877;28;20024;-80
2020/12/03 15:32:33;;;;;;;15.93;10.85;;;;;;;;;;5105017;28;20507;-81
2020/12/03 15:34:59;;;;;;;17.73;10.63;;;;;;;;;;5101593;28;20020;-80
2020/12/03 15:37:25;;;;;;;20.60;10.07;;;;;;;;;;5107649;28;20845;-80
2020/12/03 15:39:51;;;;;;;18.00;10.20;;;;;;;;;;5107534;28;20032;-80
2020/12/03 15:42:18;;;;;;;19.88;10.98;;;;;;;;;;5103779;28;20040;-81
2020/12/03 15:44:48;;;;;;;16.58;10.05;;;;;;;;;;5110208;28;20116;-80
2020/12/03 15:47:15;;;;;;;15.25;8.63;;;;;;;;;;5107280;28;20022;-79
2020/12/03 15:49:41;;;;;;;21.88;12.63;;;;;;;;;;5102429;28;20023;-80
2020/12/03 15:52:07;;;;;;;17.85;11.13;;;;;;;;;;5110556;28;20043;-80
2020/12/03 15:54:34;;;;;;;17.55;10.25;;;;;;;;;;5102738;28;20020;-80
2020/12/03 15:57:00;;;;;;;16.98;10.95;;;;;;;;;;5114767;28;20527;-81
2020/12/03 16:01:48;;;;;;;14.30;9.70;;;;;;;;;;5101652;28;20926;-83
2020/12/03 16:04:15;;;;;;;15.60;9.30;;;;;;;;;;5098932;28;20066;-82
2020/12/03 16:06:41;;;;;;;15.48;8.80;;;;;;;;;;5097643;28;20047;-82
2020/12/03 16:09:07;;;;;;;14.10;8.90;;;;;;;;;;5099852;28;20029;-82
2020/12/03 16:11:33;;;;;;;13.80;8.48;;;;;;;;;;5098660;28;20100;-82
2020/12/03 16:13:59;;;;;;;13.50;7.68;;;;;;;;;;5092910;28;20028;-82
2020/12/03 16:16:25;;;;;;;14.48;8.88;;;;;;;;;;5088101;28;20412;-82
2020/12/03 16:18:51;;;;;;;15.57;8.60;;;;;;;;;;5091815;28;20055;-82
2020/12/03 16:21:17;;;;;;;15.02;8.02;;;;;;;;;;5082229;28;20036;-82
2020/12/03 16:23:43;;;;;;;12.98;7.70;;;;;;;;;;5088552;28;20511;-82
2020/12/03 16:26:09;;;;;;;15.25;8.32;;;;;;;;;;5091905;28;20028;-82
2020/12/03 16:28:35;;;;;;;13.98;8.02;;;;;;;;;;5080598;28;20024;-82
2020/12/03 16:31:02;;;;;;;14.55;8.48;;;;;;;;;;5088828;28;20032;-82
2020/12/03 16:33:28;;;;;;;14.82;8.75;;;;;;;;;;5085564;28;20028;-82
2020/12/03 16:35:54;;;;;;;15.38;9.30;;;;;;;;;;5092194;28;20024;-82
2020/12/03 16:38:20;;;;;;;38.72;18.15;;;;;;;;;;5094132;28;20029;-80
2020/12/03 16:40:48;;;;;;;66.20;31.20;;;;;;;;;;5086694;28;20028;-80
2020/12/03 16:43:14;;;;;;;36.58;19.48;;;;;;;;;;5090805;28;20013;-80
2020/12/03 16:45:40;;;;;;;26.25;14.98;;;;;;;;;;5093454;28;20035;-81
2020/12/03 16:48:06;;;;;;;13.40;7.80;;;;;;;;;;5086626;28;20024;-80
2020/12/03 16:50:32;;;;;;;14.82;8.38;;;;;;;;;;5075189;28;20058;-80
2020/12/03 16:52:58;;;;;;;13.45;7.63;;;;;;;;;;5091378;28;20032;-80
2020/12/03 16:55:24;;;;;;;16.15;8.13;;;;;;;;;;5073323;28;20082;-81
2020/12/03 16:57:50;;;;;;;13.32;7.13;;;;;;;;;;5088969;28;20067;-80
2020/12/03 17:00:16;;;;;;;13.60;8.82;;;;;;;;;;5073305;28;20029;-79
2020/12/03 17:02:45;;;;;;;16.65;9.65;;;;;;;;;;5091377;28;20035;-80
2020/12/03 17:05:11;;;;;;;15.27;8.70;;;;;;;;;;5088886;28;20028;-80
2020/12/03 17:07:37;;;;;;;15.07;9.07;;;;;;;;;;5073201;28;20495;-80
2020/12/03 17:10:04;;;;;;;10.88;5.82;;;;;;;;;;5091405;28;20440;-80
2020/12/03 17:12:29;;;;;;;12.32;7.03;;;;;;;;;;5076631;28;20052;-79
2020/12/03 17:14:55;;;;;;;10.93;5.85;;;;;;;;;;5057628;28;20028;-83
2020/12/03 17:17:21;;;;;;;10.00;6.28;;;;;;;;;;5075485;28;20028;-83
2020/12/03 17:19:47;;;;;;;10.82;6.32;;;;;;;;;;5052782;28;20036;-82
2020/12/03 17:22:13;;;;;;;11.00;6.25;;;;;;;;;;5071775;28;20497;-82
2020/12/03 17:24:40;;;;;;;8.43;5.40;;;;;;;;;;5082475;28;20070;-82
2020/12/03 17:27:06;;;;;;;10.23;5.70;;;;;;;;;;5077215;28;20024;-82
2020/12/03 17:29:32;;;;;;;9.55;5.93;;;;;;;;;;5073534;28;20021;-82
2020/12/03 17:31:59;;;;;;;10.23;5.93;;;;;;;;;;5053330;28;20469;-82
2020/12/03 17:34:25;;;;;;;9.43;4.95;;;;;;;;;;5077380;28;20079;-82
2020/12/03 17:36:52;;;;;;;9.85;5.68;;;;;;;;;;5045857;28;20021;-83
2020/12/03 17:39:18;;;;;;;11.27;5.22;;;;;;;;;;5074293;28;20048;-83
2020/12/03 17:41:44;;;;;;;43.80;15.75;;;;;;;;;;5069977;28;20506;-83
2020/12/03 17:44:11;;;;;;;36.03;17.10;;;;;;;;;;5060732;28;20025;-83
2020/12/03 17:46:37;;;;;;;21.30;10.60;;;;;;;;;;5063606;28;20036;-83
2020/12/03 17:49:03;;;;;;;14.52;8.30;;;;;;;;;;5074694;28;20147;-82
2020/12/03 17:51:29;;;;;;;11.75;6.35;;;;;;;;;;5075472;28;20017;-82
2020/12/03 17:53:55;;;;;;;10.77;6.07;;;;;;;;;;5071256;28;20036;-82
2020/12/03 17:56:21;;;;;;;58.08;27.00;;;;;;;;;;5075224;28;20035;-83
2020/12/03 17:58:47;;;;;;;17.77;11.93;;;;;;;;;;5057328;28;20119;-82
2020/12/03 18:01:13;;;;;;;13.02;7.45;;;;;;;;;;5074893;28;20028;-82
2020/12/03 18:03:38;;;;;;;10.73;6.25;;;;;;;;;;5071162;28;20107;-82
2020/12/03 18:06:04;;;;;;;10.35;5.75;;;;;;;;;;5045475;28;20078;-82
2020/12/03 18:08:30;;;;;;;9.75;5.45;;;;;;;;;;5068863;28;20024;-82
2020/12/03 18:10:56;;;;;;;8.50;4.63;;;;;;;;;;5066009;28;20036;-82
2020/12/03 18:13:22;;;;;;;9.70;5.10;;;;;;;;;;5046095;28;20031;-82
2020/12/03 18:15:48;;;;;;;9.23;5.40;;;;;;;;;;5043713;28;20056;-81
2020/12/03 18:18:14;;;;;;;9.10;5.25;;;;;;;;;;5063742;28;20036;-82
2020/12/03 18:20:40;;;;;;;11.15;6.05;;;;;;;;;;5052623;28;20033;-82
2020/12/03 18:23:06;;;;;;;6.75;4.07;;;;;;;;;;5062790;28;20100;-82
2020/12/03 18:25:32;;;;;;;7.20;4.68;;;;;;;;;;5071781;28;20037;-82
2020/12/03 18:27:59;;;;;;;9.95;4.78;;;;;;;;;;5052252;28;20050;-82
2020/12/03 18:30:25;;;;;;;7.38;4.53;;;;;;;;;;5050470;28;20483;-82
2020/12/03 18:32:51;;;;;;;7.15;4.43;;;;;;;;;;5051147;28;20105;-82
2020/12/03 18:35:22;;;;;;;6.88;3.97;;;;;;;;;;5048772;28;20046;-82
2020/12/03 18:37:51;;;;;;;11.82;7.30;;;;;;;;;;5064792;28;20031;-82
2020/12/03 18:40:17;;;;;;;11.50;8.07;;;;;;;;;;5073031;28;20033;-82
2020/12/03 18:42:44;;;;;;;7.47;4.90;;;;;;;;;;5057238;28;20055;-82
2020/12/03 18:45:10;;;;;;;8.50;5.88;;;;;;;;;;5069284;28;20022;-83
2020/12/03 18:47:37;;;;;;;7.72;4.85;;;;;;;;;;5063233;28;20040;-81
2020/12/03 18:50:04;;;;;;;8.73;5.15;;;;;;;;;;5067629;28;20024;-81
2020/12/03 18:52:30;;;;;;;7.93;4.75;;;;;;;;;;5045134;28;20025;-80
2020/12/03 18:54:56;;;;;;;7.28;4.03;;;;;;;;;;5066913;28;20054;-81
2020/12/03 18:57:22;;;;;;;7.55;4.35;;;;;;;;;;5062406;28;20480;-81
2020/12/03 18:59:48;;;;;;;7.93;4.18;;;;;;;;;;5052344;28;20157;-80
2020/12/03 19:02:15;;;;;;;10.40;4.63;;;;;;;;;;5061638;28;20063;-81
2020/12/03 19:04:41;;;;;;;9.05;5.47;;;;;;;;;;5062734;28;20074;-81
2020/12/03 19:07:13;;;;;;;7.70;5.07;;;;;;;;;;5058774;28;20120;-81
2020/12/03 19:09:39;;;;;;;9.23;4.78;;;;;;;;;;5068189;28;20114;-81
2020/12/03 19:12:05;;;;;;;16.27;14.18;;;;;;;;;;5065846;28;20025;-80
2020/12/03 19:14:32;;;;;;;14.45;10.60;;;;;;;;;;5061777;28;20054;-81
2020/12/03 19:16:59;;;;;;;9.73;7.07;;;;;;;;;;5052198;28;20056;-81
2020/12/03 19:19:26;;;;;;;11.07;6.55;;;;;;;;;;5066573;28;20039;-81
2020/12/03 19:21:52;;;;;;;9.50;7.05;;;;;;;;;;5066806;28;20022;-81
2020/12/03 19:24:18;;;;;;;10.35;6.97;;;;;;;;;;5061941;28;20017;-81
2020/12/03 19:26:44;;;;;;;10.60;7.03;;;;;;;;;;5063736;28;20070;-81
2020/12/03 19:29:10;;;;;;;8.75;5.35;;;;;;;;;;5066162;28;20090;-81
2020/12/03 19:31:36;;;;;;;7.38;5.03;;;;;;;;;;5061399;28;20560;-81
2020/12/03 19:34:02;;;;;;;9.23;6.35;;;;;;;;;;5063985;28;20024;-81
2020/12/03 19:36:28;;;;;;;8.85;5.88;;;;;;;;;;5059568;28;20393;-80
2020/12/03 19:38:54;;;;;;;9.35;5.68;;;;;;;;;;5039817;28;20028;-81
2020/12/03 19:41:20;;;;;;;10.57;5.95;;;;;;;;;;5057337;28;20087;-81
2020/12/03 19:43:46;;;;;;;8.05;4.63;;;;;;;;;;5048812;28;20039;-81
2020/12/03 19:46:12;;;;;;;11.13;5.15;;;;;;;;;;5046595;28;20500;-80
2020/12/03 19:48:38;;;;;;;8.07;4.50;;;;;;;;;;5049498;28;20034;-80
2020/12/03 19:51:06;;;;;;;7.40;4.20;;;;;;;;;;5068026;28;20115;-80
2020/12/03 19:53:32;;;;;;;8.52;4.63;;;;;;;;;;5066763;28;20017;-81
2020/12/03 19:55:58;;;;;;;7.80;4.30;;;;;;;;;;5071677;28;20032;-80
2020/12/03 19:58:24;;;;;;;7.15;4.13;;;;;;;;;;5077806;28;20120;-81
2020/12/03 20:03:18;;;;;;;5.60;4.07;;;;;;;;;;5057496;28;20049;-86
2020/12/03 20:05:44;;;;;;;7.43;3.95;;;;;;;;;;5043044;28;20324;-80
2020/12/03 20:08:10;;;;;;;5.68;3.97;;;;;;;;;;5058565;28;20025;-82
2020/12/03 20:10:36;;;;;;;7.25;3.72;;;;;;;;;;5074482;28;20055;-82
2020/12/03 20:13:03;;;;;;;7.28;3.53;;;;;;;;;;5080121;28;20569;-81
2020/12/03 20:15:29;;;;;;;4.93;2.90;;;;;;;;;;5066287;28;20021;-82
2020/12/03 20:17:54;;;;;;;6.32;3.40;;;;;;;;;;5080603;28;20465;-80
2020/12/03 20:20:20;;;;;;;5.30;2.80;;;;;;;;;;5074268;28;20048;-83
2020/12/03 20:22:47;;;;;;;5.40;2.92;;;;;;;;;;5078927;28;20028;-82
2020/12/03 20:25:13;;;;;;;5.88;3.20;;;;;;;;;;5082575;28;20577;-81
2020/12/03 20:27:39;;;;;;;7.35;2.78;;;;;;;;;;5075576;28;20031;-83
2020/12/03 20:30:06;;;;;;;5.43;3.15;;;;;;;;;;5082098;28;20024;-80
2020/12/03 20:32:32;;;;;;;7.78;2.92;;;;;;;;;;5081612;28;20028;-81
2020/12/03 20:34:58;;;;;;;7.07;3.20;;;;;;;;;;5073758;28;20024;-82
2020/12/03 20:37:28;;;;;;;4.47;2.90;;;;;;;;;;5071097;28;20051;-81
2020/12/03 20:39:54;;;;;;;6.10;2.70;;;;;;;;;;5068683;28;20175;-82
2020/12/03 20:42:20;;;;;;;5.88;2.50;;;;;;;;;;5070191;28;20012;-82
2020/12/03 20:44:46;;;;;;;4.85;2.80;;;;;;;;;;5070639;28;20036;-82
2020/12/03 20:47:12;;;;;;;6.30;2.58;;;;;;;;;;5074337;28;20133;-79